createdAt,value
2018-08-22T00:00:15.503Z,843.57
2018-08-22T00:02:44.963Z,843.20
2018-08-22T00:05:14.334Z,827.80
2018-08-22T00:07:43.803Z,825.90
2018-08-22T00:10:13.627Z,828.60
2018-08-22T00:12:43.072Z,838.63
2018-08-22T00:15:12.660Z,720.03
2018-08-22T00:17:42.251Z,650.33
2018-08-22T00:20:11.788Z,645.67
2018-08-22T00:22:41.276Z,725.10
2018-08-22T00:25:10.720Z,735.83
2018-08-22T00:27:40.275Z,817.73
2018-08-22T00:30:09.668Z,855.53
2018-08-22T00:32:39.410Z,856.83
2018-08-22T00:35:08.969Z,874.83
2018-08-22T00:37:38.881Z,893.50
2018-08-22T00:40:18.057Z,914.20
2018-08-22T00:42:47.790Z,909.40
2018-08-22T00:45:17.271Z,924.90
2018-08-22T00:47:46.737Z,952.70
2018-08-22T00:50:16.167Z,912.23
2018-08-22T00:52:45.949Z,967.90
2018-08-22T00:55:15.437Z,945.33
2018-08-22T00:57:44.929Z,984.70
2018-08-22T01:00:14.617Z,963.33
2018-08-22T01:02:44.016Z,960.17
2018-08-22T01:05:13.448Z,956.37
2018-08-22T01:07:43.260Z,1978.50
2018-08-22T01:10:12.717Z,1100.60
2018-08-22T01:12:42.113Z,989.93
2018-08-22T01:15:11.527Z,953.90
2018-08-22T01:17:40.969Z,958.83
2018-08-22T01:20:15.192Z,917.53
2018-08-22T01:22:44.627Z,880.23
2018-08-22T01:25:13.989Z,875.13
2018-08-22T01:27:44.406Z,885.47
2018-08-22T01:30:13.850Z,849.20
2018-08-22T01:32:43.296Z,897.67
2018-08-22T01:35:12.720Z,888.57
2018-08-22T01:37:42.183Z,900.90
2018-08-22T01:40:15.971Z,843.97
2018-08-22T01:42:45.355Z,817.00
2018-08-22T01:45:14.773Z,816.83
2018-08-22T01:47:44.277Z,775.03
2018-08-22T01:50:13.672Z,753.73
2018-08-22T01:52:43.948Z,724.47
2018-08-22T01:55:13.385Z,742.47
2018-08-22T01:57:42.823Z,753.47
2018-08-22T02:00:15.913Z,732.87
2018-08-22T02:02:45.317Z,690.70
2018-08-22T02:05:14.749Z,711.10
2018-08-22T02:07:44.205Z,723.77
2018-08-22T02:10:13.606Z,682.93
2018-08-22T02:12:43.096Z,689.77
2018-08-22T02:15:12.490Z,706.10
2018-08-22T02:17:41.939Z,725.23
2018-08-22T02:20:11.356Z,766.73
2018-08-22T02:22:40.755Z,729.10
2018-08-22T02:25:10.189Z,723.63
2018-08-22T02:27:39.800Z,775.93
2018-08-22T02:30:13.113Z,689.17
2018-08-22T02:32:42.746Z,627.27
2018-08-22T02:35:12.129Z,655.80
2018-08-22T02:37:41.596Z,700.60
2018-08-22T02:40:13.989Z,697.00
2018-08-22T02:42:43.394Z,626.17
2018-08-22T02:45:13.449Z,753.80
2018-08-22T02:47:42.888Z,689.80
2018-08-22T02:50:12.324Z,664.17
2018-08-22T02:52:41.776Z,656.63
2018-08-22T02:55:12.828Z,680.63
2018-08-22T02:57:42.761Z,675.63
2018-08-22T03:00:14.570Z,693.33
2018-08-22T03:02:44.019Z,653.73
2018-08-22T03:05:13.419Z,612.13
2018-08-22T03:07:42.933Z,642.33
2018-08-22T03:10:12.687Z,614.83
2018-08-22T03:12:42.124Z,633.20
2018-08-22T03:15:15.231Z,672.60
2018-08-22T03:17:44.819Z,673.43
2018-08-22T03:20:14.245Z,647.17
2018-08-22T03:22:43.648Z,598.00
2018-08-22T03:25:13.646Z,614.57
2018-08-22T03:27:43.118Z,604.13
2018-08-22T03:30:15.637Z,608.77
2018-08-22T03:32:45.093Z,579.80
2018-08-22T03:35:14.524Z,576.43
2018-08-22T03:37:44.023Z,577.93
2018-08-22T03:40:15.697Z,600.33
2018-08-22T03:42:45.145Z,661.67
2018-08-22T03:45:14.546Z,630.97
2018-08-22T03:47:43.956Z,633.10
2018-08-22T03:50:13.909Z,606.33
2018-08-22T03:52:43.297Z,567.20
2018-08-22T03:55:14.812Z,549.83
2018-08-22T03:57:46.744Z,551.57
2018-08-22T04:00:16.196Z,584.80
2018-08-22T04:02:46.035Z,574.50
2018-08-22T04:05:15.860Z,526.87
2018-08-22T04:07:45.236Z,553.50
2018-08-22T04:10:14.633Z,516.37
2018-08-22T04:12:44.049Z,508.00
2018-08-22T04:15:13.480Z,523.27
2018-08-22T04:17:42.904Z,527.83
2018-08-22T04:20:15.835Z,505.40
2018-08-22T04:22:45.273Z,492.30
2018-08-22T04:25:14.637Z,500.13
2018-08-22T04:27:44.113Z,502.00
2018-08-22T04:30:16.080Z,518.60
2018-08-22T04:32:45.548Z,540.70
2018-08-22T04:35:22.201Z,618.47
2018-08-22T04:37:52.350Z,706.30
2018-08-22T04:40:21.752Z,594.90
2018-08-22T04:42:51.220Z,547.80
2018-08-22T04:45:20.622Z,553.70
2018-08-22T04:47:50.448Z,549.77
2018-08-22T04:50:19.877Z,593.17
2018-08-22T04:52:49.453Z,596.73
2018-08-22T04:55:18.853Z,647.30
2018-08-22T04:57:48.246Z,713.37
2018-08-22T05:00:17.719Z,739.07
2018-08-22T05:02:47.214Z,703.77
2018-08-22T05:05:16.594Z,662.43
2018-08-22T05:07:46.476Z,691.70
2018-08-22T05:10:15.864Z,659.00
2018-08-22T05:12:45.353Z,517.53
2018-08-22T05:15:15.209Z,451.43
2018-08-22T05:17:44.614Z,442.27
2018-08-22T05:20:14.091Z,440.87
2018-08-22T05:22:43.524Z,420.60
2018-08-22T05:25:12.972Z,446.40
2018-08-22T05:27:42.469Z,393.43
2018-08-22T05:30:14.424Z,444.43
2018-08-22T05:32:44.004Z,437.33
2018-08-22T05:35:13.437Z,425.17
2018-08-22T05:37:42.940Z,446.30
2018-08-22T05:40:15.265Z,438.00
2018-08-22T05:42:44.709Z,485.73
2018-08-22T05:45:16.395Z,389.37
2018-08-22T05:47:45.897Z,380.43
2018-08-22T05:50:15.263Z,413.40
2018-08-22T05:52:44.677Z,373.60
2018-08-22T05:55:14.781Z,437.20
2018-08-22T05:57:44.268Z,336.03
2018-08-22T06:00:16.716Z,358.77
2018-08-22T06:02:48.513Z,332.50
2018-08-22T06:05:21.706Z,341.83
2018-08-22T06:07:52.161Z,350.10
2018-08-22T06:10:21.619Z,338.10
2018-08-22T06:12:52.581Z,327.33
2018-08-22T06:15:26.008Z,426.65
2018-08-22T06:17:55.425Z,350.10
2018-08-22T06:20:25.712Z,357.97
2018-08-22T06:22:55.187Z,340.07
2018-08-22T06:25:25.981Z,329.20
2018-08-22T06:27:57.195Z,323.53
2018-08-22T06:30:28.302Z,333.77
2018-08-22T06:32:58.042Z,326.17
2018-08-22T06:35:28.373Z,319.07
2018-08-22T06:37:58.131Z,309.20
2018-08-22T06:40:33.661Z,328.33
2018-08-22T06:43:03.905Z,324.67
2018-08-22T06:45:36.834Z,322.70
2018-08-22T06:48:09.391Z,355.70
2018-08-22T06:50:40.777Z,352.27
2018-08-22T06:53:11.542Z,343.87
2018-08-22T06:55:42.005Z,351.83
2018-08-22T06:58:13.839Z,392.90
2018-08-22T07:00:48.281Z,395.30
2018-08-22T07:03:17.733Z,399.80
2018-08-22T07:05:47.801Z,380.20
2018-08-22T07:08:17.238Z,375.50
2018-08-22T07:10:47.611Z,387.57
2018-08-22T07:13:17.186Z,413.67
2018-08-22T07:15:49.017Z,438.30
2018-08-22T07:18:18.489Z,449.20
2018-08-22T07:20:48.496Z,470.77
2018-08-22T07:23:18.094Z,474.53
2018-08-22T07:25:48.120Z,536.60
2018-08-22T07:28:18.532Z,660.17
2018-08-22T07:30:47.968Z,720.93
2018-08-22T07:33:17.337Z,728.60
2018-08-22T07:35:46.942Z,822.33
2018-08-22T07:38:16.472Z,980.27
2018-08-22T07:40:45.884Z,909.20
2018-08-22T07:43:15.392Z,936.70
2018-08-22T07:45:44.796Z,1007.23
2018-08-22T07:48:14.300Z,1046.00
2018-08-22T07:50:43.897Z,1016.27
2018-08-22T07:53:13.522Z,1028.47
2018-08-22T07:55:43.795Z,1018.13
2018-08-22T07:58:13.286Z,1035.80
2018-08-22T08:00:42.763Z,1075.47
2018-08-22T08:03:13.668Z,1117.90
2018-08-22T08:05:43.774Z,1196.00
2018-08-22T08:08:13.501Z,1160.40
2018-08-22T08:10:42.940Z,1124.23
2018-08-22T08:13:18.575Z,1146.00
2018-08-22T08:15:48.211Z,1172.67
2018-08-22T08:18:17.650Z,1118.63
2018-08-22T08:20:47.390Z,1835.00
2018-08-22T08:23:16.843Z,1076.90
2018-08-22T08:25:46.211Z,1812.77
2018-08-22T08:28:15.684Z,2266.67
2018-08-22T08:30:46.209Z,2266.67
2018-08-22T08:33:15.647Z,2266.67
2018-08-22T08:35:45.061Z,2266.67
2018-08-22T08:38:14.745Z,2266.67
2018-08-22T08:40:44.150Z,2266.67
2018-08-22T08:43:13.980Z,2266.67
2018-08-22T08:45:44.325Z,2266.67
2018-08-22T08:48:13.901Z,2266.67
2018-08-22T08:50:43.280Z,2266.67
2018-08-22T08:53:12.747Z,2266.67
2018-08-22T08:55:42.432Z,2266.67
2018-08-22T08:58:11.903Z,2266.67
2018-08-22T09:00:41.309Z,2266.67
2018-08-22T09:03:10.699Z,2266.67
2018-08-22T09:05:40.510Z,2266.67
2018-08-22T09:08:09.895Z,2266.67
2018-08-22T09:10:39.363Z,2266.67
2018-08-22T09:13:10.280Z,2266.67
2018-08-22T09:15:39.707Z,2266.67
2018-08-22T09:18:09.329Z,2266.67
2018-08-22T09:20:39.197Z,2266.67
2018-08-22T09:23:08.890Z,2266.67
2018-08-22T09:25:38.357Z,2266.67
2018-08-22T09:28:07.775Z,2266.67
2018-08-22T09:30:37.388Z,2266.67
2018-08-22T09:33:06.872Z,2266.67
2018-08-22T09:35:36.350Z,2266.67
2018-08-22T09:38:05.973Z,2266.67
2018-08-22T09:40:35.373Z,2266.67
2018-08-22T09:43:04.784Z,2266.67
2018-08-22T09:45:34.393Z,2266.67
2018-08-22T09:48:03.806Z,2266.67
2018-08-22T09:50:33.308Z,2266.67
2018-08-22T09:53:02.701Z,2266.67
2018-08-22T09:55:32.781Z,2266.67
2018-08-22T09:58:02.274Z,2266.67
2018-08-22T10:00:36.899Z,2266.67
2018-08-22T10:03:06.495Z,2266.67
2018-08-22T10:05:35.894Z,2266.67
2018-08-22T10:08:05.821Z,2266.67
2018-08-22T10:10:35.212Z,2266.67
2018-08-22T10:13:04.647Z,2266.67
2018-08-22T10:15:34.054Z,2266.67
2018-08-22T10:18:03.745Z,2266.67
2018-08-22T10:20:33.517Z,2266.67
2018-08-22T10:23:02.933Z,2266.67
2018-08-22T10:25:32.395Z,2266.67
2018-08-22T10:28:03.133Z,2266.67
2018-08-22T10:30:32.615Z,2266.67
2018-08-22T10:33:02.055Z,2266.67
2018-08-22T10:35:31.617Z,2266.67
2018-08-22T10:38:01.037Z,2266.67
2018-08-22T10:40:31.081Z,2266.67
2018-08-22T10:43:00.512Z,2266.67
2018-08-22T10:45:29.961Z,2266.67
2018-08-22T10:47:59.406Z,2266.67
2018-08-22T10:50:29.026Z,2266.67
2018-08-22T10:52:58.685Z,2266.67
2018-08-22T10:55:32.901Z,2266.67
2018-08-22T10:58:02.302Z,2266.67
2018-08-22T11:00:31.702Z,2266.67
2018-08-22T11:03:01.129Z,2266.67
2018-08-22T11:05:30.842Z,2266.67
2018-08-22T11:08:01.058Z,2266.67
2018-08-22T11:10:31.707Z,2266.67
2018-08-22T11:13:01.258Z,2266.67
2018-08-22T11:15:32.297Z,2266.67
2018-08-22T11:18:01.938Z,2266.67
2018-08-22T11:20:32.060Z,2266.67
2018-08-22T11:23:13.036Z,2266.67
2018-08-22T11:25:53.600Z,2266.67
2018-08-22T11:28:34.152Z,2266.67
2018-08-22T11:31:14.680Z,2266.67
2018-08-22T11:33:55.093Z,2266.67
2018-08-22T11:36:23.865Z,2266.67
2018-08-22T11:38:53.245Z,2266.67
2018-08-22T11:41:22.734Z,2266.67
2018-08-22T11:43:52.621Z,2266.67
2018-08-22T11:46:22.068Z,2266.67
2018-08-22T11:48:52.613Z,2266.67
2018-08-22T11:51:22.073Z,2266.67
2018-08-22T11:53:51.578Z,2266.67
2018-08-22T11:56:21.002Z,2266.67
2018-08-22T11:58:50.441Z,2266.67
2018-08-22T12:01:19.954Z,2266.67
2018-08-22T12:03:49.343Z,2266.67
2018-08-22T12:06:18.772Z,2266.67
2018-08-22T12:08:48.604Z,2266.67
2018-08-22T12:11:18.058Z,2266.67
2018-08-22T12:13:47.560Z,2266.67
2018-08-22T12:16:16.973Z,2266.67
2018-08-22T12:18:46.488Z,2266.67
2018-08-22T12:21:15.977Z,2266.67
2018-08-22T12:23:45.381Z,2266.67
2018-08-22T12:26:14.790Z,2266.67
2018-08-22T12:28:44.257Z,2266.67
2018-08-22T12:31:14.274Z,2266.67
2018-08-22T12:33:43.789Z,2266.67
2018-08-22T12:36:13.216Z,2266.67
2018-08-22T12:38:42.713Z,2266.67
2018-08-22T12:41:12.311Z,2266.67
2018-08-22T12:43:41.749Z,2266.67
2018-08-22T12:46:11.267Z,2266.67
2018-08-22T12:48:40.761Z,2266.67
2018-08-22T12:51:10.215Z,2266.67
2018-08-22T12:53:39.712Z,2266.67
2018-08-22T12:56:09.225Z,2266.67
2018-08-22T12:58:38.644Z,2266.67
2018-08-22T13:01:08.315Z,2266.67
2018-08-22T13:03:37.775Z,2266.67
2018-08-22T13:06:08.184Z,2266.67
2018-08-22T13:08:37.605Z,2266.67
2018-08-22T13:11:07.280Z,2266.67
2018-08-22T13:13:36.788Z,2266.67
2018-08-22T13:16:07.365Z,2266.67
2018-08-22T13:18:36.766Z,2266.67
2018-08-22T13:21:06.683Z,2266.67
2018-08-22T13:23:36.144Z,2266.67
2018-08-22T13:26:05.910Z,2266.67
2018-08-22T13:28:35.331Z,2266.67
2018-08-22T13:31:04.930Z,2266.67
2018-08-22T13:33:34.358Z,2266.67
2018-08-22T13:36:03.808Z,2266.67
2018-08-22T13:38:33.407Z,2266.67
2018-08-22T13:41:03.286Z,2266.67
2018-08-22T13:43:32.801Z,2266.67
2018-08-22T13:46:02.197Z,2266.67
2018-08-22T13:48:31.709Z,2266.67
2018-08-22T13:51:01.210Z,2266.67
2018-08-22T13:53:30.615Z,2266.67
2018-08-22T13:56:00.079Z,2266.67
2018-08-22T13:58:29.699Z,2266.67
2018-08-22T14:00:59.094Z,2266.67
2018-08-22T14:03:28.506Z,2266.67
2018-08-22T14:05:57.972Z,2266.67
2018-08-22T14:08:27.474Z,2266.67
2018-08-22T14:10:56.937Z,2266.67
2018-08-22T14:13:26.359Z,2266.67
2018-08-22T14:15:56.154Z,2266.67
2018-08-22T14:18:25.834Z,2266.67
2018-08-22T14:20:55.491Z,2266.67
2018-08-22T14:23:24.952Z,2266.67
2018-08-22T14:25:54.367Z,2266.67
2018-08-22T14:28:25.501Z,2266.67
2018-08-22T14:30:54.957Z,2266.67
2018-08-22T14:33:24.564Z,2266.67
2018-08-22T14:35:54.086Z,2266.67
2018-08-22T14:38:23.573Z,2266.67
2018-08-22T14:40:53.129Z,2266.67
2018-08-22T14:43:22.525Z,2266.67
2018-08-22T14:45:52.132Z,2266.67
2018-08-22T14:48:21.528Z,2266.67
2018-08-22T14:50:50.960Z,2266.67
2018-08-22T14:53:21.463Z,2266.67
2018-08-22T14:55:51.011Z,2266.67
2018-08-22T14:58:20.499Z,2266.67
2018-08-22T15:00:49.991Z,2266.67
2018-08-22T15:03:20.619Z,2266.67
2018-08-22T15:05:50.045Z,2266.67
2018-08-22T15:08:19.472Z,2266.67
2018-08-22T15:10:49.168Z,2266.67
2018-08-22T15:13:18.795Z,2266.67
2018-08-22T15:15:48.201Z,2266.67
2018-08-22T15:18:17.680Z,2266.67
2018-08-22T15:20:47.122Z,2266.67
2018-08-22T15:23:16.568Z,2266.67
2018-08-22T15:25:46.052Z,2266.67
2018-08-22T15:28:15.665Z,2266.67
2018-08-22T15:30:46.160Z,2266.67
2018-08-22T15:33:15.577Z,2266.67
2018-08-22T15:35:45.109Z,2266.67
2018-08-22T15:38:14.511Z,2266.67
2018-08-22T15:40:44.119Z,2266.67
2018-08-22T15:43:13.710Z,2266.67
2018-08-22T15:45:43.260Z,2266.67
2018-08-22T15:48:12.749Z,2266.67
2018-08-22T15:50:42.269Z,2266.67
2018-08-22T15:53:11.747Z,2266.67
2018-08-22T15:55:41.413Z,2266.67
2018-08-22T15:58:10.810Z,2266.67
2018-08-22T16:00:44.508Z,2266.67
2018-08-22T16:03:13.933Z,2266.67
2018-08-22T16:05:44.398Z,2266.67
2018-08-22T16:08:15.648Z,2266.67
2018-08-22T16:10:45.304Z,2266.67
2018-08-22T16:13:30.326Z,2266.67
2018-08-22T16:16:02.500Z,2266.67
2018-08-22T16:18:35.628Z,2266.67
2018-08-22T16:21:06.901Z,2266.67
2018-08-22T16:23:36.430Z,2266.67
2018-08-22T16:26:06.329Z,2266.67
2018-08-22T16:28:49.725Z,2266.67
2018-08-22T16:31:19.177Z,2266.67
2018-08-22T16:33:48.733Z,2266.67
2018-08-22T16:36:24.038Z,2266.67
2018-08-22T16:38:53.805Z,2266.67
2018-08-22T16:41:23.222Z,2266.67
2018-08-22T16:43:52.653Z,2266.67
2018-08-22T16:46:23.430Z,2266.67
2018-08-22T16:48:54.264Z,2266.67
2018-08-22T16:51:24.725Z,2266.67
2018-08-22T16:54:01.105Z,2266.67
2018-08-22T16:56:32.169Z,2266.67
2018-08-22T16:59:06.951Z,2266.67
2018-08-22T17:01:37.066Z,2266.67
2018-08-22T17:04:06.925Z,2266.67
2018-08-22T17:06:36.434Z,2266.67
2018-08-22T17:09:08.461Z,2266.67
2018-08-22T17:11:38.256Z,2266.67
2018-08-22T17:14:07.742Z,2266.67
2018-08-22T17:16:37.319Z,2266.67
2018-08-22T17:19:06.818Z,2266.67
2018-08-22T17:21:36.234Z,2266.67
2018-08-22T17:24:05.964Z,2266.67
2018-08-22T17:26:35.412Z,2266.67
2018-08-22T17:29:04.972Z,2266.67
2018-08-22T17:31:34.402Z,2266.67
2018-08-22T17:34:04.176Z,2266.67
2018-08-22T17:36:33.643Z,2266.67
2018-08-22T17:39:03.302Z,2266.67
2018-08-22T17:41:32.793Z,2266.67
2018-08-22T17:44:06.734Z,2266.67
2018-08-22T17:46:42.624Z,2266.67
2018-08-22T17:49:12.050Z,2266.67
2018-08-22T17:52:14.367Z,2266.67
2018-08-22T17:54:43.821Z,2266.67
2018-08-22T17:57:21.996Z,2266.67
2018-08-22T17:59:51.405Z,2266.67
2018-08-22T18:02:21.557Z,2266.67
2018-08-22T18:05:00.073Z,2266.67
2018-08-22T18:07:29.681Z,2266.67
2018-08-22T18:09:59.210Z,2266.67
2018-08-22T18:12:28.925Z,2266.67
2018-08-22T18:15:00.532Z,2266.67
2018-08-22T18:17:30.045Z,2266.67
2018-08-22T18:19:59.515Z,2266.67
2018-08-22T18:22:33.741Z,2266.67
2018-08-22T18:25:07.922Z,2266.67
2018-08-22T18:27:39.035Z,2266.67
2018-08-22T18:30:14.592Z,2266.67
2018-08-22T18:32:45.584Z,2266.67
2018-08-22T18:35:15.142Z,2266.67
2018-08-22T18:37:44.666Z,2266.67
2018-08-22T18:40:17.640Z,2266.67
2018-08-22T18:42:48.842Z,2266.67
2018-08-22T18:45:18.650Z,2266.67
2018-08-22T18:47:48.221Z,2266.67
2018-08-22T18:50:17.924Z,2266.67
2018-08-22T18:52:48.916Z,2266.67
2018-08-22T18:55:18.983Z,2266.67
2018-08-22T18:57:48.453Z,2266.67
2018-08-22T19:00:17.972Z,2266.67
2018-08-22T19:02:49.393Z,2266.67
2018-08-22T19:05:22.314Z,2266.67
2018-08-22T19:08:08.551Z,2266.67
2018-08-22T19:10:42.389Z,2266.67
2018-08-22T19:13:17.153Z,2266.67
2018-08-22T19:15:59.554Z,2266.67
2018-08-22T19:18:29.149Z,2266.67
2018-08-22T19:21:00.590Z,2266.67
2018-08-22T19:23:31.335Z,2266.67
2018-08-22T19:26:01.893Z,2266.67
2018-08-22T19:28:32.813Z,2266.67
2018-08-22T19:31:02.216Z,2266.67
2018-08-22T19:33:31.697Z,2266.67
2018-08-22T19:36:01.399Z,2266.67
2018-08-22T19:38:31.432Z,2266.67
2018-08-22T19:41:14.956Z,2266.67
2018-08-22T19:43:44.492Z,2266.67
2018-08-22T19:46:14.064Z,2266.67
2018-08-22T19:48:43.587Z,2266.67
2018-08-22T19:51:13.053Z,2266.67
2018-08-22T19:53:54.212Z,2266.67
2018-08-22T19:56:23.964Z,2266.67
2018-08-22T19:58:53.555Z,2266.67
2018-08-22T20:01:23.268Z,2266.67
2018-08-22T20:03:54.046Z,2266.67
2018-08-22T20:06:24.067Z,2266.67
2018-08-22T20:08:54.674Z,2266.67
2018-08-22T20:11:25.024Z,2266.67
2018-08-22T20:14:03.356Z,2266.67
2018-08-22T20:16:32.873Z,2266.67
2018-08-22T20:19:03.664Z,2266.67
2018-08-22T20:21:35.419Z,2266.67
2018-08-22T20:24:06.353Z,2266.67
2018-08-22T20:26:36.469Z,2266.67
2018-08-22T20:29:06.280Z,2266.67
2018-08-22T20:31:36.746Z,2266.67
2018-08-22T20:34:08.927Z,2266.67
2018-08-22T20:36:39.387Z,2266.67
2018-08-22T20:39:10.866Z,2266.67
2018-08-22T20:41:41.004Z,2266.67
2018-08-22T20:44:15.361Z,2266.67
2018-08-22T20:46:45.907Z,2266.67
2018-08-22T20:49:17.069Z,2266.67
2018-08-22T20:51:46.782Z,2266.67
2018-08-22T20:54:20.751Z,2266.67
2018-08-22T20:56:55.601Z,2266.67
2018-08-22T20:59:25.088Z,2266.67
2018-08-22T21:02:09.985Z,2266.67
2018-08-22T21:04:39.596Z,2266.67
2018-08-22T21:07:09.053Z,2266.67
2018-08-22T21:09:38.482Z,2266.67
2018-08-22T21:12:07.976Z,2266.67
2018-08-22T21:14:37.427Z,2266.67
2018-08-22T21:17:07.082Z,2266.67
2018-08-22T21:19:36.480Z,2266.67
2018-08-22T21:22:16.043Z,2266.67
2018-08-22T21:24:46.441Z,2266.67
2018-08-22T21:27:16.080Z,2266.67
2018-08-22T21:29:45.597Z,2266.67
2018-08-22T21:32:15.133Z,2266.67
2018-08-22T21:34:44.635Z,2266.67
2018-08-22T21:37:22.189Z,2266.67
2018-08-22T21:39:51.583Z,2266.67
2018-08-22T21:42:26.292Z,2266.67
2018-08-22T21:44:56.440Z,2266.67
2018-08-22T21:47:25.876Z,2266.67
2018-08-22T21:49:55.374Z,2266.67
2018-08-22T21:52:24.894Z,2266.67
2018-08-22T21:54:54.657Z,2266.67
2018-08-22T21:57:24.306Z,2266.67
2018-08-22T21:59:58.909Z,2266.67
2018-08-22T22:02:28.432Z,2266.67
2018-08-22T22:04:57.907Z,2266.67
2018-08-22T22:07:27.549Z,2266.67
2018-08-22T22:10:01.170Z,2266.67
2018-08-22T22:12:36.768Z,2266.67
2018-08-22T22:15:17.565Z,2266.67
2018-08-22T22:17:47.008Z,2266.67
2018-08-22T22:20:16.449Z,2266.67
2018-08-22T22:22:46.031Z,2266.67
2018-08-22T22:25:15.512Z,2266.67
2018-08-22T22:27:46.417Z,2266.67
2018-08-22T22:30:16.292Z,2266.67
2018-08-22T22:32:45.813Z,2266.67
2018-08-22T22:35:22.809Z,2266.67
2018-08-22T22:37:53.489Z,2266.67
2018-08-22T22:40:26.972Z,2266.67
2018-08-22T22:42:56.499Z,2266.67
2018-08-22T22:45:25.995Z,2266.67
2018-08-22T22:47:55.436Z,2266.67
2018-08-22T22:50:24.975Z,2266.67
2018-08-22T22:52:54.970Z,2266.67
2018-08-22T22:55:25.163Z,2266.67
2018-08-22T22:57:54.561Z,2266.67
2018-08-22T23:00:24.011Z,2266.67
2018-08-22T23:02:58.723Z,2266.67
2018-08-22T23:05:32.893Z,2266.67
2018-08-22T23:08:02.645Z,2266.67
2018-08-22T23:10:32.184Z,2266.67
2018-08-22T23:13:01.633Z,2266.67
2018-08-22T23:15:31.624Z,2266.67
2018-08-22T23:18:02.986Z,2266.67
2018-08-22T23:20:36.322Z,2266.67
2018-08-22T23:23:16.789Z,2266.67
2018-08-22T23:25:46.185Z,2266.67
2018-08-22T23:28:15.643Z,2266.67
2018-08-22T23:30:45.116Z,2266.67
2018-08-22T23:33:14.564Z,2266.67
2018-08-22T23:35:43.993Z,2266.67
2018-08-22T23:38:18.696Z,2266.67
2018-08-22T23:40:48.770Z,2266.67
2018-08-22T23:43:18.155Z,2266.67
2018-08-22T23:45:57.533Z,2266.67
2018-08-22T23:48:32.314Z,2266.67
2018-08-22T23:51:03.334Z,2266.67
2018-08-22T23:53:38.898Z,2266.67
2018-08-22T23:56:17.620Z,2266.67
2018-08-22T23:58:48.032Z,2266.67
